createdAt,value
2017-10-11T00:00:31.911Z,14.30
2017-10-11T00:03:00.287Z,14.25
2017-10-11T00:05:28.667Z,15.25
2017-10-11T00:07:57.018Z,14.93
2017-10-11T00:10:24.656Z,14.82
2017-10-11T00:12:52.266Z,15.95
2017-10-11T00:15:20.606Z,13.90
2017-10-11T00:17:48.217Z,13.00
2017-10-11T00:20:15.840Z,13.70
2017-10-11T00:22:47.066Z,13.95
2017-10-11T00:25:17.511Z,15.00
2017-10-11T00:27:46.628Z,13.80
2017-10-11T00:30:14.675Z,14.10
2017-10-11T00:32:43.046Z,13.85
2017-10-11T00:35:11.018Z,14.35
2017-10-11T00:37:38.635Z,13.23
2017-10-11T00:40:06.692Z,13.60
2017-10-11T00:42:34.324Z,14.25
2017-10-11T00:45:01.931Z,13.32
2017-10-11T00:47:29.551Z,13.20
2017-10-11T00:49:57.163Z,13.38
2017-10-11T00:52:24.770Z,14.93
2017-10-11T00:54:52.382Z,15.05
2017-10-11T00:57:20.094Z,14.05
2017-10-11T00:59:48.206Z,14.25
2017-10-11T01:02:15.852Z,14.52
2017-10-11T01:04:44.240Z,14.68
2017-10-11T01:07:12.625Z,13.23
2017-10-11T01:09:40.262Z,14.05
2017-10-11T01:12:07.931Z,15.40
2017-10-11T01:14:35.547Z,14.75
2017-10-11T01:17:03.186Z,14.00
2017-10-11T01:19:30.862Z,13.23
2017-10-11T01:21:58.483Z,14.87
2017-10-11T01:24:26.097Z,15.18
2017-10-11T01:26:53.867Z,14.20
2017-10-11T01:29:21.510Z,15.15
2017-10-11T01:31:49.120Z,15.25
2017-10-11T01:34:16.703Z,15.70
2017-10-11T01:36:44.322Z,15.50
2017-10-11T01:39:11.914Z,14.68
2017-10-11T01:41:39.506Z,14.77
2017-10-11T01:44:07.139Z,14.60
2017-10-11T01:46:34.795Z,15.10
2017-10-11T01:49:02.445Z,14.77
2017-10-11T01:51:30.078Z,15.85
2017-10-11T01:53:57.684Z,15.07
2017-10-11T01:56:26.075Z,13.10
2017-10-11T01:58:54.452Z,14.90
2017-10-11T02:01:22.787Z,15.10
2017-10-11T02:03:50.399Z,16.17
2017-10-11T02:06:18.017Z,15.43
2017-10-11T02:08:45.627Z,16.48
2017-10-11T02:11:13.779Z,15.55
2017-10-11T02:13:41.350Z,16.50
2017-10-11T02:16:09.685Z,15.82
2017-10-11T02:18:37.338Z,16.90
2017-10-11T02:21:04.922Z,15.88
2017-10-11T02:23:32.498Z,16.05
2017-10-11T02:26:00.870Z,16.65
2017-10-11T02:28:28.592Z,16.52
2017-10-11T02:30:56.201Z,16.50
2017-10-11T02:33:23.820Z,17.25
2017-10-11T02:35:51.438Z,16.20
2017-10-11T02:38:19.047Z,16.17
2017-10-11T02:40:46.663Z,16.95
2017-10-11T02:43:14.275Z,17.23
2017-10-11T02:45:41.896Z,16.45
2017-10-11T02:48:09.505Z,15.38
2017-10-11T02:50:37.099Z,15.40
2017-10-11T02:53:04.708Z,15.77
2017-10-11T02:55:32.248Z,15.15
2017-10-11T02:57:59.864Z,14.87
2017-10-11T03:00:27.476Z,14.93
2017-10-11T03:02:55.089Z,15.68
2017-10-11T03:05:22.706Z,15.68
2017-10-11T03:07:50.323Z,15.80
2017-10-11T03:10:18.734Z,15.05
2017-10-11T03:12:46.361Z,14.25
2017-10-11T03:15:13.978Z,14.98
2017-10-11T03:17:41.590Z,14.15
2017-10-11T03:20:09.209Z,15.45
2017-10-11T03:22:36.829Z,13.30
2017-10-11T03:25:04.410Z,13.75
2017-10-11T03:27:31.989Z,12.98
2017-10-11T03:30:00.471Z,13.65
2017-10-11T03:32:28.090Z,12.73
2017-10-11T03:34:55.702Z,14.15
2017-10-11T03:37:23.317Z,12.23
2017-10-11T03:39:50.939Z,11.80
2017-10-11T03:42:18.558Z,11.00
2017-10-11T03:44:46.205Z,11.90
2017-10-11T03:47:13.815Z,11.10
2017-10-11T03:49:41.422Z,10.57
2017-10-11T03:52:09.030Z,10.25
2017-10-11T03:54:36.638Z,9.95
2017-10-11T03:57:04.208Z,10.32
2017-10-11T03:59:31.817Z,10.43
2017-10-11T04:01:59.423Z,9.93
2017-10-11T04:04:27.034Z,11.55
2017-10-11T04:06:54.657Z,11.20
2017-10-11T04:09:22.233Z,11.20
2017-10-11T04:11:49.859Z,11.77
2017-10-11T04:14:17.513Z,11.90
2017-10-11T04:16:46.127Z,11.32
2017-10-11T04:19:14.475Z,13.38
2017-10-11T04:21:42.146Z,13.18
2017-10-11T04:24:09.783Z,13.10
2017-10-11T04:26:38.162Z,12.98
2017-10-11T04:29:06.541Z,13.98
2017-10-11T04:31:34.918Z,14.00
2017-10-11T04:34:03.306Z,12.80
2017-10-11T04:36:31.689Z,12.05
2017-10-11T04:39:00.075Z,12.82
2017-10-11T04:41:28.455Z,12.82
2017-10-11T04:43:56.848Z,12.60
2017-10-11T04:46:24.459Z,12.18
2017-10-11T04:48:52.074Z,12.15
2017-10-11T04:51:19.701Z,12.18
2017-10-11T04:53:47.334Z,12.32
2017-10-11T04:56:14.947Z,12.70
2017-10-11T04:58:42.559Z,11.80
2017-10-11T05:01:10.166Z,11.50
2017-10-11T05:03:37.782Z,10.70
2017-10-11T05:06:05.392Z,10.50
2017-10-11T05:08:33.014Z,11.40
2017-10-11T05:11:00.623Z,12.30
2017-10-11T05:13:28.242Z,10.52
2017-10-11T05:15:55.819Z,12.50
2017-10-11T05:18:23.426Z,12.35
2017-10-11T05:20:51.038Z,11.48
2017-10-11T05:23:18.663Z,12.37
2017-10-11T05:25:46.270Z,12.27
2017-10-11T05:28:14.620Z,12.70
2017-10-11T05:30:42.282Z,12.50
2017-10-11T05:33:09.890Z,11.27
2017-10-11T05:35:37.509Z,12.02
2017-10-11T05:38:05.132Z,10.55
2017-10-11T05:40:32.741Z,11.57
2017-10-11T05:43:01.115Z,11.27
2017-10-11T05:45:28.729Z,12.07
2017-10-11T05:47:56.301Z,12.15
2017-10-11T05:50:23.917Z,11.45
2017-10-11T05:52:51.535Z,11.00
2017-10-11T05:55:19.110Z,10.00
2017-10-11T05:57:46.734Z,10.73
2017-10-11T06:00:14.310Z,11.75
2017-10-11T06:02:41.886Z,10.93
2017-10-11T06:05:09.463Z,11.48
2017-10-11T06:07:37.054Z,10.77
2017-10-11T06:10:04.665Z,10.98
2017-10-11T06:12:32.285Z,11.10
2017-10-11T06:14:59.895Z,10.82
2017-10-11T06:17:27.513Z,10.25
2017-10-11T06:19:55.085Z,11.02
2017-10-11T06:22:22.652Z,10.93
2017-10-11T06:24:50.265Z,11.75
2017-10-11T06:27:18.597Z,9.90
2017-10-11T06:29:46.171Z,11.07
2017-10-11T06:32:13.803Z,11.73
2017-10-11T06:34:41.417Z,10.70
2017-10-11T06:37:09.033Z,9.90
2017-10-11T06:39:36.649Z,10.60
2017-10-11T06:42:04.264Z,10.40
2017-10-11T06:44:31.841Z,10.15
2017-10-11T06:46:59.422Z,10.00
2017-10-11T06:49:27.034Z,10.90
2017-10-11T06:51:54.658Z,11.30
2017-10-11T06:54:22.273Z,11.45
2017-10-11T06:56:49.938Z,10.90
2017-10-11T06:59:17.558Z,10.95
2017-10-11T07:01:45.170Z,9.95
2017-10-11T07:04:13.924Z,9.68
2017-10-11T07:06:42.884Z,9.80
2017-10-11T07:09:10.510Z,10.07
2017-10-11T07:11:38.173Z,10.90
2017-10-11T07:14:05.817Z,9.82
2017-10-11T07:16:33.394Z,9.05
2017-10-11T07:19:01.057Z,8.55
2017-10-11T07:21:28.683Z,8.77
2017-10-11T07:23:56.354Z,8.57
2017-10-11T07:26:23.981Z,8.50
2017-10-11T07:28:51.597Z,10.65
2017-10-11T07:31:19.179Z,12.48
2017-10-11T07:33:46.801Z,10.82
2017-10-11T07:36:14.422Z,9.48
2017-10-11T07:38:42.051Z,8.23
2017-10-11T07:41:10.588Z,8.57
2017-10-11T07:43:38.170Z,7.57
2017-10-11T07:46:05.935Z,6.35
2017-10-11T07:48:33.524Z,7.40
2017-10-11T07:51:01.144Z,7.15
2017-10-11T07:53:28.771Z,7.32
2017-10-11T07:55:56.405Z,5.57
2017-10-11T07:58:24.030Z,5.10
2017-10-11T08:00:51.617Z,5.00
2017-10-11T08:03:19.278Z,4.60
2017-10-11T08:05:46.904Z,4.93
2017-10-11T08:08:14.481Z,4.60
2017-10-11T08:10:42.118Z,4.90
2017-10-11T08:13:09.742Z,5.97
2017-10-11T08:15:38.144Z,5.75
2017-10-11T08:18:05.756Z,5.00
2017-10-11T08:20:33.336Z,5.25
2017-10-11T08:23:01.717Z,4.85
2017-10-11T08:25:30.120Z,5.53
2017-10-11T08:27:57.779Z,4.68
2017-10-11T08:30:25.394Z,5.32
2017-10-11T08:32:53.018Z,5.47
2017-10-11T08:35:21.280Z,5.37
2017-10-11T08:37:48.895Z,4.93
2017-10-11T08:40:16.511Z,5.20
2017-10-11T08:42:44.130Z,4.60
2017-10-11T08:45:11.744Z,4.97
2017-10-11T08:47:39.326Z,4.10
2017-10-11T08:50:06.898Z,4.90
2017-10-11T08:52:34.526Z,5.00
2017-10-11T08:55:02.904Z,4.93
2017-10-11T08:57:31.283Z,4.50
2017-10-11T08:59:58.901Z,4.72
2017-10-11T09:02:26.510Z,5.00
2017-10-11T09:04:54.124Z,3.87
2017-10-11T09:07:21.731Z,4.45
2017-10-11T09:09:49.338Z,3.87
2017-10-11T09:12:18.137Z,4.87
2017-10-11T09:14:45.711Z,3.67
2017-10-11T09:17:13.327Z,4.12
2017-10-11T09:19:40.959Z,8.82
2017-10-11T09:22:08.567Z,5.25
2017-10-11T09:24:36.174Z,5.22
2017-10-11T09:27:04.564Z,4.00
2017-10-11T09:29:36.347Z,4.28
2017-10-11T09:32:04.350Z,7.55
2017-10-11T09:34:31.992Z,4.15
2017-10-11T09:36:59.588Z,4.22
2017-10-11T09:39:27.243Z,4.50
2017-10-11T09:41:54.899Z,4.82
2017-10-11T09:44:23.231Z,4.80
2017-10-11T09:46:50.835Z,4.45
2017-10-11T09:49:18.560Z,3.90
2017-10-11T09:51:46.230Z,4.20
2017-10-11T09:54:14.646Z,4.03
2017-10-11T09:56:42.276Z,3.80
2017-10-11T09:59:09.931Z,3.47
2017-10-11T10:01:37.542Z,3.70
2017-10-11T10:04:05.182Z,3.70
2017-10-11T10:06:32.912Z,3.22
2017-10-11T10:09:00.529Z,3.40
2017-10-11T10:11:28.914Z,3.37
2017-10-11T10:13:56.482Z,3.22
2017-10-11T10:16:24.098Z,3.25
2017-10-11T10:18:51.707Z,3.10
2017-10-11T10:21:19.280Z,3.42
2017-10-11T10:23:46.890Z,3.15
2017-10-11T10:26:14.502Z,3.30
2017-10-11T10:28:42.983Z,3.70
2017-10-11T10:31:10.586Z,3.00
2017-10-11T10:33:38.206Z,3.58
2017-10-11T10:36:05.816Z,3.10
2017-10-11T10:38:33.390Z,3.70
2017-10-11T10:41:03.608Z,3.37
2017-10-11T10:43:32.003Z,3.20
2017-10-11T10:46:00.558Z,3.03
2017-10-11T10:48:28.673Z,2.83
2017-10-11T10:50:56.362Z,2.78
2017-10-11T10:53:24.020Z,3.03
2017-10-11T10:55:51.714Z,3.08
2017-10-11T10:58:19.410Z,2.60
2017-10-11T11:00:47.073Z,2.70
2017-10-11T11:03:14.768Z,2.72
2017-10-11T11:05:42.347Z,2.22
2017-10-11T11:08:10.360Z,2.23
2017-10-11T11:10:38.318Z,2.62
2017-10-11T11:13:05.897Z,2.50
2017-10-11T11:15:33.551Z,3.03
2017-10-11T11:18:01.165Z,3.30
2017-10-11T11:20:28.782Z,2.97
2017-10-11T11:22:56.409Z,3.10
2017-10-11T11:25:24.066Z,2.40
2017-10-11T11:27:51.686Z,2.78
2017-10-11T11:30:20.088Z,2.80
2017-10-11T11:32:47.762Z,2.53
2017-10-11T11:35:15.385Z,2.17
2017-10-11T11:37:42.996Z,2.28
2017-10-11T11:40:10.631Z,3.40
2017-10-11T11:42:38.365Z,2.50
2017-10-11T11:45:05.985Z,2.58
2017-10-11T11:47:33.609Z,2.08
2017-10-11T11:50:01.223Z,2.70
2017-10-11T11:52:29.221Z,6.25
2017-10-11T11:54:56.830Z,2.28
2017-10-11T11:57:24.913Z,2.55
2017-10-11T11:59:53.290Z,2.50
2017-10-11T12:02:22.505Z,2.30
2017-10-11T12:04:51.348Z,2.35
2017-10-11T12:07:18.920Z,2.45
2017-10-11T12:09:47.058Z,2.15
2017-10-11T12:12:15.489Z,2.35
2017-10-11T12:14:43.104Z,2.25
2017-10-11T12:17:11.313Z,2.10
2017-10-11T12:19:39.925Z,2.50
2017-10-11T12:22:07.654Z,2.20
2017-10-11T12:24:39.567Z,2.65
2017-10-11T12:27:08.587Z,2.50
2017-10-11T12:29:36.831Z,2.05
2017-10-11T12:32:04.785Z,2.30
2017-10-11T12:34:32.465Z,2.25
2017-10-11T12:37:00.766Z,2.25
2017-10-11T12:39:28.429Z,2.20
2017-10-11T12:41:56.394Z,2.30
2017-10-11T12:44:24.003Z,1.70
2017-10-11T12:46:53.409Z,2.08
2017-10-11T12:49:21.055Z,2.33
2017-10-11T12:51:49.159Z,2.20
2017-10-11T12:54:18.937Z,2.33
2017-10-11T12:56:46.546Z,2.35
2017-10-11T12:59:15.922Z,2.70
2017-10-11T13:01:43.538Z,2.37
2017-10-11T13:04:11.266Z,2.30
2017-10-11T13:06:39.538Z,2.37
2017-10-11T13:09:08.490Z,2.70
2017-10-11T13:11:37.271Z,2.62
2017-10-11T13:14:05.591Z,2.50
2017-10-11T13:16:33.537Z,2.47
2017-10-11T13:19:01.149Z,2.25
2017-10-11T13:21:28.757Z,2.30
2017-10-11T13:23:56.377Z,1.90
2017-10-11T13:26:23.985Z,2.60
2017-10-11T13:28:51.610Z,2.40
2017-10-11T13:31:19.177Z,2.50
2017-10-11T13:33:46.745Z,2.22
2017-10-11T13:36:14.357Z,3.15
2017-10-11T13:38:41.963Z,2.60
2017-10-11T13:41:09.629Z,2.25
2017-10-11T13:43:37.198Z,2.75
2017-10-11T13:46:04.783Z,2.10
2017-10-11T13:48:32.394Z,2.30
2017-10-11T13:50:59.961Z,2.05
2017-10-11T13:53:27.574Z,2.70
2017-10-11T13:55:55.179Z,2.10
2017-10-11T13:58:22.793Z,2.50
2017-10-11T14:00:52.079Z,3.25
2017-10-11T14:03:19.696Z,3.10
2017-10-11T14:05:47.315Z,2.92
2017-10-11T14:08:14.924Z,2.58
2017-10-11T14:10:42.534Z,2.70
2017-10-11T14:13:10.104Z,2.53
2017-10-11T14:15:38.481Z,2.35
2017-10-11T14:18:06.901Z,2.40
2017-10-11T14:20:34.479Z,3.00
2017-10-11T14:23:02.098Z,3.00
2017-10-11T14:25:30.485Z,2.85
2017-10-11T14:27:58.104Z,3.40
2017-10-11T14:30:25.726Z,3.20
2017-10-11T14:32:53.811Z,3.55
2017-10-11T14:35:21.496Z,3.25
2017-10-11T14:37:49.069Z,3.50
2017-10-11T14:40:16.674Z,3.12
2017-10-11T14:42:45.012Z,2.90
2017-10-11T14:45:12.630Z,3.33
2017-10-11T14:47:40.271Z,3.10
2017-10-11T14:50:08.103Z,4.35
2017-10-11T14:52:47.876Z,3.45
2017-10-11T14:55:15.455Z,3.97
2017-10-11T14:57:43.066Z,5.03
2017-10-11T15:00:10.635Z,4.47
2017-10-11T15:02:38.249Z,5.05
2017-10-11T15:05:05.854Z,3.75
2017-10-11T15:07:33.474Z,4.57
2017-10-11T15:10:01.114Z,4.40
2017-10-11T15:12:28.728Z,4.85
2017-10-11T15:14:56.339Z,4.85
2017-10-11T15:17:23.946Z,5.78
2017-10-11T15:19:51.542Z,7.87
2017-10-11T15:22:19.165Z,10.13
2017-10-11T15:54:43.009Z,5.60
2017-10-11T15:57:10.624Z,5.50
2017-10-11T15:59:39.054Z,5.22
2017-10-11T16:02:06.678Z,5.85
2017-10-11T16:04:35.058Z,5.70
2017-10-11T16:07:03.832Z,7.00
2017-10-11T16:09:32.229Z,6.70
2017-10-11T16:12:00.610Z,6.55
2017-10-11T16:14:28.306Z,7.20
2017-10-11T16:16:55.914Z,8.30
2017-10-11T16:19:23.530Z,14.00
2017-10-11T16:21:51.109Z,16.70
2017-10-11T16:24:22.134Z,15.40
2017-10-11T16:26:49.751Z,16.60
2017-10-11T16:29:17.382Z,16.73
2017-10-11T16:31:45.001Z,14.32
2017-10-11T16:34:12.662Z,12.80
2017-10-11T16:36:40.384Z,11.95
2017-10-11T16:39:08.751Z,9.45
2017-10-11T16:41:36.369Z,7.80
2017-10-11T16:44:03.987Z,6.75
2017-10-11T16:46:32.372Z,6.15
2017-10-11T16:49:00.773Z,6.15
2017-10-11T16:51:28.346Z,6.20
2017-10-11T16:53:55.955Z,5.93
2017-10-11T16:56:23.585Z,7.03
2017-10-11T16:58:52.426Z,6.53
2017-10-11T17:01:20.809Z,9.02
2017-10-11T17:03:49.192Z,7.72
2017-10-11T17:06:16.830Z,7.40
2017-10-11T17:08:44.415Z,7.35
2017-10-11T17:11:12.026Z,6.78
2017-10-11T17:13:39.635Z,7.68
2017-10-11T17:16:08.019Z,13.07
2017-10-11T17:18:35.590Z,10.10
2017-10-11T17:21:03.171Z,12.68
2017-10-11T17:23:30.791Z,9.98
2017-10-11T17:25:58.408Z,12.20
2017-10-11T17:28:26.071Z,10.18
2017-10-11T17:30:53.656Z,8.48
2017-10-11T17:33:22.044Z,6.93
2017-10-11T17:35:50.429Z,6.15
2017-10-11T17:38:18.802Z,5.70
2017-10-11T17:40:47.203Z,7.18
2017-10-11T17:43:14.830Z,6.00
2017-10-11T17:45:42.443Z,5.75
2017-10-11T17:48:10.055Z,6.55
2017-10-11T17:50:37.665Z,5.75
2017-10-11T17:53:05.291Z,5.12
2017-10-11T17:55:32.955Z,7.20
2017-10-11T17:58:00.562Z,6.43
2017-10-11T18:00:28.140Z,5.05
2017-10-11T18:02:55.787Z,5.95
2017-10-11T18:05:23.452Z,6.40
2017-10-11T18:07:51.063Z,7.30
2017-10-11T18:10:19.496Z,7.22
2017-10-11T18:12:47.074Z,7.10
2017-10-11T18:15:14.683Z,7.22
2017-10-11T18:17:42.439Z,7.40
2017-10-11T18:20:10.027Z,7.65
2017-10-11T18:22:37.643Z,7.68
2017-10-11T18:25:06.022Z,7.85
2017-10-11T18:27:34.364Z,7.93
2017-10-11T18:30:01.992Z,7.80
2017-10-11T18:32:29.574Z,7.95
2017-10-11T18:34:57.180Z,7.50
2017-10-11T18:37:24.810Z,7.87
2017-10-11T18:39:52.434Z,7.15
2017-10-11T18:42:20.072Z,7.20
2017-10-11T18:44:48.461Z,7.75
2017-10-11T18:47:16.757Z,8.70
2017-10-11T18:49:44.301Z,8.30
2017-10-11T18:52:11.919Z,7.87
2017-10-11T18:54:39.591Z,8.10
2017-10-11T18:57:07.211Z,8.25
2017-10-11T18:59:34.837Z,8.00
2017-10-11T19:02:03.251Z,8.18
2017-10-11T19:04:30.878Z,7.22
2017-10-11T19:06:58.458Z,7.75
2017-10-11T19:09:26.044Z,8.50
2017-10-11T19:11:53.659Z,7.57
2017-10-11T19:14:21.270Z,7.97
2017-10-11T19:16:48.922Z,7.00
2017-10-11T19:19:16.548Z,7.50
2017-10-11T19:21:44.137Z,6.95
2017-10-11T19:24:12.722Z,6.60
2017-10-11T19:26:40.300Z,6.10
2017-10-11T19:29:07.884Z,6.85
2017-10-11T19:31:35.766Z,6.57
2017-10-11T19:34:03.687Z,6.85
2017-10-11T19:36:31.308Z,6.72
2017-10-11T19:38:59.645Z,6.30
2017-10-11T19:41:27.258Z,6.32
2017-10-11T19:43:54.836Z,6.32
2017-10-11T19:46:22.452Z,6.20
2017-10-11T19:48:50.140Z,6.80
2017-10-11T19:51:17.806Z,6.00
2017-10-11T19:53:45.424Z,6.12
2017-10-11T19:56:13.052Z,5.80
2017-10-11T19:58:40.667Z,6.90
2017-10-11T20:01:08.286Z,6.03
2017-10-11T20:03:35.894Z,6.35
2017-10-11T20:06:03.472Z,6.25
2017-10-11T20:08:31.045Z,6.65
2017-10-11T20:10:58.621Z,5.90
2017-10-11T20:13:26.193Z,6.72
2017-10-11T20:15:53.806Z,6.05
2017-10-11T20:18:21.414Z,6.57
2017-10-11T20:20:49.043Z,6.68
2017-10-11T20:23:16.674Z,7.40
2017-10-11T20:25:44.291Z,7.07
2017-10-11T20:28:11.911Z,6.35
2017-10-11T20:30:39.523Z,7.45
2017-10-11T20:33:09.158Z,6.70
2017-10-11T20:35:36.849Z,6.93
2017-10-11T20:38:04.459Z,6.43
2017-10-11T20:40:32.084Z,7.95
2017-10-11T20:42:59.717Z,7.60
2017-10-11T20:45:27.331Z,7.22
2017-10-11T20:47:54.946Z,6.68
2017-10-11T20:50:23.322Z,7.12
2017-10-11T20:52:50.903Z,6.95
2017-10-11T20:55:18.521Z,7.10
2017-10-11T20:57:46.227Z,6.55
2017-10-11T21:00:13.839Z,8.27
2017-10-11T21:02:41.454Z,7.43
2017-10-11T21:05:09.062Z,7.62
2017-10-11T21:07:36.692Z,8.07
2017-10-11T21:10:04.323Z,8.13
2017-10-11T21:12:31.948Z,7.18
2017-10-11T21:14:59.529Z,7.15
2017-10-11T21:17:27.139Z,5.95
2017-10-11T21:19:54.750Z,6.62
2017-10-11T21:22:22.364Z,6.40
2017-10-11T21:24:49.978Z,6.37
2017-10-11T21:27:17.570Z,6.40
2017-10-11T21:29:45.183Z,6.10
2017-10-11T21:32:12.809Z,5.62
2017-10-11T21:34:40.418Z,5.68
2017-10-11T21:37:08.040Z,5.68
2017-10-11T21:39:35.660Z,5.50
2017-10-11T21:42:03.283Z,4.70
2017-10-11T21:44:30.999Z,4.78
2017-10-11T21:46:58.612Z,3.90
2017-10-11T21:49:26.185Z,4.35
2017-10-11T21:51:54.528Z,4.30
2017-10-11T21:54:22.153Z,4.35
2017-10-11T21:56:49.763Z,3.80
2017-10-11T21:59:17.336Z,3.67
2017-10-11T22:01:45.149Z,3.92
2017-10-11T22:04:12.746Z,4.25
2017-10-11T22:06:40.328Z,3.60
2017-10-11T22:09:07.948Z,4.15
2017-10-11T22:11:35.567Z,4.40
2017-10-11T22:14:03.189Z,3.92
2017-10-11T22:16:31.248Z,3.95
2017-10-11T22:18:58.841Z,4.82
2017-10-11T22:21:26.459Z,3.90
2017-10-11T22:23:54.086Z,4.28
2017-10-11T22:26:21.723Z,3.90
2017-10-11T22:28:49.395Z,4.15
2017-10-11T22:31:17.029Z,4.20
2017-10-11T22:33:44.642Z,3.50
2017-10-11T22:36:12.252Z,3.55
2017-10-11T22:38:39.862Z,3.70
2017-10-11T22:41:07.482Z,3.87
2017-10-11T22:43:35.056Z,3.75
2017-10-11T22:46:02.679Z,4.40
2017-10-11T22:48:30.335Z,3.40
2017-10-11T22:50:57.876Z,3.60
2017-10-11T22:53:25.498Z,4.03
2017-10-11T22:55:53.843Z,3.40
2017-10-11T22:58:21.461Z,3.53
2017-10-11T23:00:49.076Z,3.60
2017-10-11T23:03:16.691Z,3.40
2017-10-11T23:05:44.268Z,3.35
2017-10-11T23:08:11.810Z,3.35
2017-10-11T23:10:39.422Z,3.35
2017-10-11T23:13:07.000Z,3.80
2017-10-11T23:15:34.615Z,3.10
2017-10-11T23:18:02.184Z,3.28
2017-10-11T23:20:29.755Z,3.62
2017-10-11T23:22:57.373Z,3.17
2017-10-11T23:25:24.950Z,3.37
2017-10-11T23:27:52.558Z,3.62
2017-10-11T23:30:20.212Z,3.17
2017-10-11T23:32:47.827Z,3.22
2017-10-11T23:35:15.400Z,3.70
2017-10-11T23:37:43.029Z,3.30
2017-10-11T23:40:10.642Z,3.28
2017-10-11T23:42:38.215Z,3.55
2017-10-11T23:45:05.838Z,3.75
2017-10-11T23:47:33.409Z,3.50
2017-10-11T23:50:01.027Z,3.62
2017-10-11T23:52:28.601Z,3.40
2017-10-11T23:54:56.210Z,2.83
2017-10-11T23:57:23.825Z,2.83
2017-10-11T23:59:51.439Z,2.97
